Pequot Lakes, MN (56472)

2:44 PM CDT on July 06, 2015 (GMT -0500)
Lake Ossi | | Change Station
CLOSE
Current Station
Personal Weather Station
Location: Pequot Lakes, MN
Elevation: 1224 ft
Nearby Weather Stations

Elev 1224 ft 46.65 °N, 94.21 °W | Updated 30 seconds ago

Partly Cloudy
Partly Cloudy
73.2 °F
Feels Like 77 °F
N
9.2
Wind Variable Wind from North
Gusts 9.2 mph

Today
High -- | Low -- °F
--% Chance of Precip.
Yesterday
High -- | Low -- °F
Precip. -- in
5:30 AM 9:12 PM
Waning Gibbous, 73% visible
Pressure 29.96 in
Visibility 6.0 miles
Clouds Mostly Cloudy 3400 ft
Heat Index 77 °F
Dew Point 50 °F
Humidity 45%
Rainfall 0.01 in
Snow Depth Not available.
UV 6 out of 12
Pollen .60 out of 12
Air Quality Not available.
Flu Activity Not available.
METAR KBRD 061853Z AUTO 35009KT 6SM HZ BKN034 21/12 A2997 RMK AO2 SLP146 T02060122

More Conditions Fewer Conditions

Pressure 29.96 in
Visibility 6.0 miles
Clouds Mostly Cloudy 3400 ft
Heat Index 77 °F
Dew Point 50 °F
Humidity 45%
Rainfall 0.01 in
Snow Depth Not available.
UV 6 out of 12
Pollen .60 out of 12
Air Quality Not available.
Flu Activity Not available.
METAR KBRD 061853Z AUTO 35009KT 6SM HZ BKN034 21/12 A2997 RMK AO2 SLP146 T02060122

More Conditions Fewer Conditions

10-Day Weather Forecast

×

Almanac

Astronomy

Jul. 06, 2015 Rise Set
Actual Time
Civil Twilight
Nautical Twilight
Astronomical Twilight
Moon
Length of Visible Light
Length of Day
Tomorrow will be .
, % of the Moon is Illuminated

Today's Extremes

State Highs State Lows

Community

WunderPhotos

Upload Photos

1,835,625 photos uploaded!

WunderBlogs® & News

Nearby

Air Quality

  Air Quality AQ Index Pollutant
Not available.

Snow Depth

Station Depth Elevation

Earthquake Activity

City Distance Mag. Time & Date
Minimum magnitude displayed is 2.5.

Coastal Water Temperatures

Place Temperature

Stations

Nearby Weather Stations

Station Location Temp. Windchill Dew Point Humidity Wind Precip. Elev Updated Type